createdAt,value
2019-05-02T00:01:18.360Z,99.90
2019-05-02T00:03:48.157Z,99.90
2019-05-02T00:06:18.089Z,99.90
2019-05-02T00:08:48.557Z,99.90
2019-05-02T00:11:18.703Z,99.90
2019-05-02T00:13:48.647Z,99.90
2019-05-02T00:16:18.700Z,99.90
2019-05-02T00:18:48.424Z,99.90
2019-05-02T00:21:18.463Z,99.90
2019-05-02T00:23:48.291Z,99.90
2019-05-02T00:26:18.060Z,99.90
2019-05-02T00:28:49.913Z,99.90
2019-05-02T00:31:21.575Z,99.90
2019-05-02T00:33:52.656Z,99.90
2019-05-02T00:36:22.414Z,99.90
2019-05-02T00:38:53.297Z,99.90
2019-05-02T00:41:23.031Z,99.90
2019-05-02T00:43:53.131Z,99.90
2019-05-02T00:46:23.260Z,99.90
2019-05-02T00:48:59.831Z,99.90
2019-05-02T00:51:26.699Z,99.90
2019-05-02T00:53:57.807Z,99.90
2019-05-02T00:56:27.554Z,99.90
2019-05-02T00:58:57.309Z,99.90
2019-05-02T01:01:29.506Z,99.90
2019-05-02T01:04:02.393Z,99.90
2019-05-02T01:06:32.149Z,99.90
2019-05-02T01:09:05.948Z,99.90
2019-05-02T01:11:34.932Z,99.90
2019-05-02T01:14:04.780Z,99.90
2019-05-02T01:16:34.863Z,99.90
2019-05-02T01:19:04.592Z,99.90
2019-05-02T01:21:38.836Z,99.90
2019-05-02T01:24:05.722Z,99.90
2019-05-02T01:26:53.829Z,99.90
2019-05-02T01:29:39.900Z,99.90
2019-05-02T01:32:11.223Z,99.90
2019-05-02T01:34:42.820Z,99.90
2019-05-02T01:37:20.595Z,99.90
2019-05-02T01:39:48.723Z,99.90
2019-05-02T01:42:18.452Z,99.90
2019-05-02T01:44:48.223Z,99.90
2019-05-02T01:47:17.955Z,99.90
2019-05-02T01:49:51.968Z,99.90
2019-05-02T01:52:23.682Z,99.90
2019-05-02T01:54:50.778Z,99.90
2019-05-02T01:57:20.533Z,99.90
2019-05-02T01:59:50.574Z,99.90
2019-05-02T02:02:20.330Z,99.90
2019-05-02T02:04:52.122Z,99.90
2019-05-02T02:07:21.456Z,99.90
2019-05-02T02:09:51.200Z,99.90
2019-05-02T02:12:20.959Z,99.90
2019-05-02T02:14:53.349Z,99.90
2019-05-02T02:17:23.091Z,99.90
2019-05-02T02:19:54.410Z,99.90
2019-05-02T02:22:44.978Z,99.90
2019-05-02T02:25:35.773Z,99.90
2019-05-02T02:28:02.630Z,99.90
2019-05-02T02:30:32.380Z,99.90
2019-05-02T02:33:07.500Z,99.90
2019-05-02T02:35:34.866Z,99.90
2019-05-02T02:38:05.206Z,99.90
2019-05-02T02:40:35.647Z,99.90
2019-05-02T02:43:30.358Z,99.90
2019-05-02T02:45:44.576Z,99.90
2019-05-02T02:48:15.129Z,99.90
2019-05-02T02:50:45.293Z,99.90
2019-05-02T02:53:18.108Z,99.90
2019-05-02T02:55:49.152Z,99.90
2019-05-02T02:58:18.918Z,99.90
2019-05-02T03:00:49.372Z,99.90
2019-05-02T03:03:20.797Z,99.90
2019-05-02T03:05:50.484Z,99.90
2019-05-02T03:08:20.383Z,99.90
2019-05-02T03:10:50.139Z,99.90
2019-05-02T03:13:27.323Z,99.90
2019-05-02T03:16:16.653Z,99.90
2019-05-02T03:18:46.479Z,99.90
2019-05-02T03:21:20.428Z,99.90
2019-05-02T03:23:47.758Z,99.90
2019-05-02T03:26:17.524Z,99.90
2019-05-02T03:28:57.129Z,99.90
2019-05-02T03:31:28.267Z,99.90
2019-05-02T03:33:56.423Z,99.90
2019-05-02T03:36:35.597Z,99.90
2019-05-02T03:38:54.041Z,99.90
2019-05-02T03:41:23.921Z,99.90
2019-05-02T03:44:09.961Z,99.90
2019-05-02T03:46:27.096Z,99.90
2019-05-02T03:49:05.816Z,99.90
2019-05-02T03:51:28.296Z,99.90
2019-05-02T03:54:06.100Z,99.90
2019-05-02T03:56:29.438Z,99.90
2019-05-02T03:58:59.329Z,99.90
2019-05-02T04:01:34.762Z,99.90
2019-05-02T04:04:02.936Z,99.90
2019-05-02T04:06:32.772Z,99.90
2019-05-02T04:09:03.428Z,99.90
2019-05-02T04:11:39.166Z,99.90
2019-05-02T04:14:14.718Z,99.90
2019-05-02T04:16:36.411Z,99.90
2019-05-02T04:19:06.232Z,99.90
2019-05-02T04:21:36.267Z,99.90
2019-05-02T04:24:15.057Z,99.90
2019-05-02T04:26:38.520Z,99.90
2019-05-02T04:29:08.268Z,99.90
2019-05-02T04:31:38.030Z,99.20
2019-05-02T04:34:15.723Z,99.00
2019-05-02T04:36:39.160Z,99.00
2019-05-02T04:39:14.979Z,98.90
2019-05-02T04:41:42.517Z,98.70
2019-05-02T04:44:12.600Z,98.60
2019-05-02T04:46:43.352Z,97.90
2019-05-02T04:49:13.172Z,97.20
2019-05-02T04:51:50.752Z,96.50
2019-05-02T04:54:21.674Z,95.70
2019-05-02T04:56:49.518Z,96.00
2019-05-02T04:59:22.693Z,95.90
2019-05-02T05:01:56.973Z,94.90
2019-05-02T05:04:20.792Z,93.70
2019-05-02T05:06:56.066Z,92.80
2019-05-02T05:09:21.916Z,92.10
2019-05-02T05:11:53.928Z,91.40
2019-05-02T05:14:23.050Z,90.90
2019-05-02T05:16:55.711Z,90.90
2019-05-02T05:19:30.900Z,91.30
2019-05-02T05:22:04.328Z,90.70
2019-05-02T05:24:32.706Z,91.20
2019-05-02T05:27:00.824Z,91.70
2019-05-02T05:29:31.457Z,91.60
2019-05-02T05:32:20.458Z,90.60
2019-05-02T05:34:50.244Z,91.10
2019-05-02T05:37:19.991Z,90.40
2019-05-02T05:39:52.525Z,89.70
2019-05-02T05:42:23.430Z,89.50
2019-05-02T05:44:52.499Z,90.40
2019-05-02T05:47:22.263Z,88.60
2019-05-02T05:49:56.511Z,87.40
2019-05-02T05:52:23.567Z,87.60
2019-05-02T05:54:53.298Z,87.80
2019-05-02T05:57:23.055Z,84.60
2019-05-02T05:59:53.808Z,82.60
2019-05-02T06:02:24.591Z,82.80
2019-05-02T06:04:55.191Z,82.10
2019-05-02T06:07:27.464Z,80.90
2019-05-02T06:09:57.058Z,79.50
2019-05-02T06:12:30.400Z,73.90
2019-05-02T06:15:01.811Z,71.40
2019-05-02T06:17:30.479Z,67.50
2019-05-02T06:20:00.335Z,71.10
2019-05-02T06:22:30.091Z,71.20
2019-05-02T06:25:02.178Z,70.00
2019-05-02T06:27:32.305Z,70.70
2019-05-02T06:30:02.140Z,71.80
2019-05-02T06:32:31.880Z,72.50
2019-05-02T06:35:01.627Z,75.20
2019-05-02T06:37:31.415Z,75.20
2019-05-02T06:40:03.133Z,74.20
2019-05-02T06:42:34.324Z,75.40
2019-05-02T06:45:06.243Z,74.00
2019-05-02T06:47:40.893Z,74.50
2019-05-02T06:50:07.996Z,79.30
2019-05-02T06:52:38.158Z,81.10
2019-05-02T06:55:08.423Z,83.50
2019-05-02T06:57:38.178Z,82.80
2019-05-02T07:00:08.922Z,79.20
2019-05-02T07:02:38.683Z,78.90
2019-05-02T07:05:08.736Z,79.10
2019-05-02T07:07:38.531Z,80.90
2019-05-02T07:10:09.359Z,76.40
2019-05-02T07:12:39.097Z,77.80
2019-05-02T07:15:11.548Z,76.30
2019-05-02T07:17:42.951Z,73.90
2019-05-02T07:20:12.938Z,71.90
2019-05-02T07:22:45.460Z,71.00
2019-05-02T07:25:17.558Z,72.50
2019-05-02T07:27:47.327Z,70.40
2019-05-02T07:30:17.837Z,69.30
2019-05-02T07:32:47.603Z,70.40
2019-05-02T07:35:19.413Z,72.80
2019-05-02T07:37:50.004Z,75.80
2019-05-02T07:40:19.977Z,68.00
2019-05-02T07:42:49.764Z,66.50
2019-05-02T07:45:19.718Z,66.60
2019-05-02T07:47:49.841Z,71.50
2019-05-02T07:50:20.257Z,62.90
2019-05-02T07:52:50.013Z,62.80
2019-05-02T07:55:20.120Z,63.80
2019-05-02T07:57:49.858Z,66.20
2019-05-02T08:00:20.253Z,63.70
2019-05-02T08:02:49.998Z,63.90
2019-05-02T08:05:21.534Z,63.20
2019-05-02T08:07:53.271Z,61.20
2019-05-02T08:10:24.006Z,59.70
2019-05-02T08:12:53.888Z,56.60
2019-05-02T08:15:24.740Z,60.00
2019-05-02T08:17:55.244Z,58.80
2019-05-02T08:20:25.264Z,59.90
2019-05-02T08:22:55.307Z,54.10
2019-05-02T08:25:25.052Z,53.00
2019-05-02T08:28:04.711Z,51.60
2019-05-02T08:30:42.090Z,54.00
2019-05-02T08:33:11.500Z,55.10
2019-05-02T08:35:40.976Z,53.40
2019-05-02T08:38:12.657Z,50.70
2019-05-02T08:40:47.934Z,49.50
2019-05-02T08:43:14.928Z,52.50
2019-05-02T08:45:44.416Z,55.80
2019-05-02T08:48:14.923Z,52.50
2019-05-02T08:50:46.579Z,51.50
2019-05-02T08:53:19.649Z,47.90
2019-05-02T08:55:48.061Z,48.40
2019-05-02T08:58:17.538Z,49.70
2019-05-02T09:00:47.681Z,51.70
2019-05-02T09:03:17.205Z,51.00
2019-05-02T09:05:49.499Z,45.50
2019-05-02T09:08:18.976Z,45.60
2019-05-02T09:10:48.434Z,44.00
2019-05-02T09:13:26.130Z,43.80
2019-05-02T09:15:54.229Z,43.80
2019-05-02T09:18:30.100Z,43.80
2019-05-02T09:20:56.839Z,42.20
2019-05-02T09:23:27.448Z,41.50
2019-05-02T09:25:59.225Z,43.90
2019-05-02T09:28:28.967Z,40.40
2019-05-02T09:31:05.107Z,39.50
2019-05-02T09:33:32.234Z,39.40
2019-05-02T09:36:02.801Z,40.00
2019-05-02T09:38:32.908Z,41.50
2019-05-02T09:41:16.161Z,45.10
2019-05-02T09:43:39.059Z,43.10
2019-05-02T09:46:12.943Z,41.40
2019-05-02T09:48:39.644Z,37.50
2019-05-02T09:51:15.676Z,40.10
2019-05-02T09:53:40.207Z,38.30
2019-05-02T09:56:22.065Z,41.80
2019-05-02T09:58:55.088Z,44.70
2019-05-02T10:01:37.023Z,42.40
2019-05-02T10:04:07.375Z,44.30
2019-05-02T10:06:36.821Z,46.90
2019-05-02T10:09:07.808Z,51.00
2019-05-02T10:11:38.090Z,50.00
2019-05-02T10:14:07.629Z,49.60
2019-05-02T10:16:37.075Z,50.10
2019-05-02T10:19:10.482Z,46.70
2019-05-02T10:21:38.878Z,47.30
2019-05-02T10:24:08.334Z,42.40
2019-05-02T10:26:37.783Z,44.10
2019-05-02T10:29:07.244Z,45.80
2019-05-02T10:31:37.830Z,45.30
2019-05-02T10:34:16.375Z,49.40
2019-05-02T10:36:43.255Z,50.50
2019-05-02T10:39:15.563Z,51.60
2019-05-02T10:41:43.780Z,54.30
2019-05-02T10:44:13.325Z,53.00
2019-05-02T10:46:45.458Z,51.90
2019-05-02T10:49:16.500Z,53.50
2019-05-02T10:51:49.153Z,52.40
2019-05-02T10:54:20.508Z,52.40
2019-05-02T10:56:49.080Z,51.80
2019-05-02T10:59:18.518Z,54.60
2019-05-02T11:01:49.661Z,54.40
2019-05-02T11:04:19.115Z,54.20
2019-05-02T11:06:49.010Z,51.30
2019-05-02T11:09:22.514Z,52.20
2019-05-02T11:11:51.855Z,53.20
2019-05-02T11:14:39.162Z,53.90
2019-05-02T11:17:19.311Z,55.10
2019-05-02T11:20:01.874Z,57.30
2019-05-02T11:22:32.948Z,57.10
2019-05-02T11:25:02.448Z,56.40
2019-05-02T11:27:32.862Z,57.00
2019-05-02T11:30:02.807Z,55.60
2019-05-02T11:32:33.905Z,52.80
2019-05-02T11:35:04.595Z,53.00
2019-05-02T11:37:34.077Z,52.70
2019-05-02T11:40:06.641Z,55.10
2019-05-02T11:42:36.207Z,53.90
2019-05-02T11:45:06.952Z,51.60
2019-05-02T11:47:36.363Z,49.40
2019-05-02T11:50:18.275Z,49.70
2019-05-02T11:52:47.729Z,52.40
2019-05-02T11:55:18.918Z,52.90
2019-05-02T11:57:48.635Z,46.90
2019-05-02T12:00:18.569Z,46.90
2019-05-02T12:02:54.260Z,46.40
2019-05-02T12:05:26.493Z,45.70
2019-05-02T12:07:53.504Z,46.30
2019-05-02T12:10:23.035Z,49.00
2019-05-02T12:12:52.743Z,48.00
2019-05-02T12:15:22.730Z,46.90
2019-05-02T12:17:52.182Z,47.60
2019-05-02T12:20:22.759Z,46.60
2019-05-02T12:22:52.859Z,47.70
2019-05-02T12:25:22.454Z,47.40
2019-05-02T12:27:52.698Z,48.40
2019-05-02T12:30:22.854Z,47.70
2019-05-02T12:32:53.943Z,47.80
2019-05-02T12:35:23.409Z,49.80
2019-05-02T12:37:55.174Z,49.20
2019-05-02T12:40:24.147Z,50.00
2019-05-02T12:42:53.612Z,49.20
2019-05-02T12:45:23.321Z,46.80
2019-05-02T12:47:53.165Z,46.60
2019-05-02T12:50:22.697Z,47.20
2019-05-02T12:52:55.464Z,47.80
2019-05-02T12:55:23.529Z,46.70
2019-05-02T12:57:52.993Z,45.90
2019-05-02T13:00:22.542Z,47.90
2019-05-02T13:02:56.478Z,49.00
2019-05-02T13:05:25.949Z,50.00
2019-05-02T13:07:55.594Z,48.10
2019-05-02T13:10:26.798Z,48.10
2019-05-02T13:12:56.235Z,46.70
2019-05-02T13:15:25.736Z,47.10
2019-05-02T13:17:55.206Z,46.20
2019-05-02T13:20:29.410Z,48.30
2019-05-02T13:23:00.780Z,48.30
2019-05-02T13:25:32.898Z,45.70
2019-05-02T13:28:01.841Z,47.40
2019-05-02T13:30:46.621Z,45.90
2019-05-02T13:33:18.113Z,46.00
2019-05-02T13:35:49.232Z,46.70
2019-05-02T13:38:20.068Z,46.50
2019-05-02T13:40:51.654Z,46.40
2019-05-02T13:43:22.519Z,46.70
2019-05-02T13:45:53.870Z,45.60
2019-05-02T13:48:23.402Z,47.30
2019-05-02T13:50:53.028Z,48.00
2019-05-02T13:53:23.468Z,46.40
2019-05-02T13:56:12.941Z,45.80
2019-05-02T13:58:42.531Z,46.50
2019-05-02T14:01:12.453Z,45.90
2019-05-02T14:03:42.127Z,47.20
2019-05-02T14:06:12.362Z,46.40
2019-05-02T14:08:46.304Z,48.50
2019-05-02T14:11:33.853Z,47.50
2019-05-02T14:14:03.459Z,47.40
2019-05-02T14:16:33.276Z,47.70
2019-05-02T14:19:03.075Z,45.90
2019-05-02T14:21:32.566Z,44.60
2019-05-02T14:24:02.032Z,43.10
2019-05-02T14:26:33.185Z,44.30
2019-05-02T14:29:07.159Z,46.00
2019-05-02T14:31:33.951Z,44.10
2019-05-02T14:34:14.034Z,44.80
2019-05-02T14:36:44.273Z,46.00
2019-05-02T14:39:13.808Z,45.50
2019-05-02T14:41:44.615Z,43.50
2019-05-02T14:44:18.071Z,44.00
2019-05-02T14:46:45.282Z,43.80
2019-05-02T14:49:16.602Z,44.80
2019-05-02T14:51:45.794Z,45.50
2019-05-02T14:54:15.267Z,46.20
2019-05-02T14:56:47.737Z,45.20
2019-05-02T14:59:19.871Z,44.80
2019-05-02T15:01:50.437Z,44.80
2019-05-02T15:04:22.678Z,45.40
2019-05-02T15:06:52.645Z,47.50
2019-05-02T15:09:26.586Z,46.70
2019-05-02T15:11:59.410Z,45.80
2019-05-02T15:14:32.909Z,45.20
2019-05-02T15:17:02.856Z,45.30
2019-05-02T15:19:33.244Z,44.80
2019-05-02T15:22:04.104Z,45.70
2019-05-02T15:24:37.357Z,46.50
2019-05-02T15:27:11.962Z,46.30
2019-05-02T15:29:35.855Z,46.30
2019-05-02T15:32:10.023Z,46.70
2019-05-02T15:34:56.359Z,46.00
2019-05-02T15:37:26.179Z,44.90
2019-05-02T15:42:26.701Z,43.60
2019-05-02T15:44:56.961Z,43.60
2019-05-02T15:47:27.587Z,43.80
2019-05-02T15:49:57.034Z,44.30
2019-05-02T15:52:28.155Z,44.50
2019-05-02T15:55:11.560Z,45.40
2019-05-02T15:57:53.811Z,44.60
2019-05-02T16:00:25.820Z,45.10
2019-05-02T16:02:56.347Z,44.90
2019-05-02T16:05:26.759Z,47.60
2019-05-02T16:08:05.465Z,46.70
2019-05-02T16:10:33.398Z,46.30
2019-05-02T16:12:59.542Z,47.20
2019-05-02T16:15:29.110Z,47.10
2019-05-02T16:18:01.937Z,47.60
2019-05-02T16:20:32.352Z,49.40
2019-05-02T16:23:01.993Z,46.30
2019-05-02T16:25:32.016Z,47.50
2019-05-02T16:28:05.982Z,47.70
2019-05-02T16:30:37.095Z,48.50
2019-05-02T16:33:07.982Z,46.30
2019-05-02T16:35:36.441Z,47.60
2019-05-02T16:38:06.273Z,47.60
2019-05-02T16:40:35.862Z,47.40
2019-05-02T16:43:05.306Z,47.20
2019-05-02T16:45:34.759Z,48.90
2019-05-02T16:48:04.694Z,47.70
2019-05-02T16:50:36.651Z,48.50
2019-05-02T16:53:05.261Z,48.40
2019-05-02T16:55:34.694Z,47.60
2019-05-02T16:58:07.021Z,47.80
2019-05-02T17:00:36.802Z,49.20
2019-05-02T17:03:06.446Z,48.10
2019-05-02T17:05:39.479Z,51.50
2019-05-02T17:08:10.838Z,49.50
2019-05-02T17:10:47.389Z,48.80
2019-05-02T17:13:15.492Z,51.70
2019-05-02T17:15:44.964Z,50.70
2019-05-02T17:18:17.846Z,50.50
2019-05-02T17:20:47.077Z,49.80
2019-05-02T17:23:16.600Z,49.20
2019-05-02T17:25:46.425Z,49.10
2019-05-02T17:28:15.898Z,49.20
2019-05-02T17:30:45.339Z,50.00
2019-05-02T17:33:16.377Z,50.90
2019-05-02T17:35:49.952Z,51.70
2019-05-02T17:38:19.216Z,51.90
2019-05-02T17:40:52.358Z,53.60
2019-05-02T17:43:22.699Z,55.10
2019-05-02T17:45:52.333Z,55.20
2019-05-02T17:48:21.812Z,55.20
2019-05-02T17:51:08.208Z,58.60
2019-05-02T17:53:41.328Z,59.10
2019-05-02T17:56:12.973Z,61.50
2019-05-02T17:58:47.321Z,62.40
2019-05-02T18:01:21.746Z,65.20
2019-05-02T18:03:52.072Z,67.50
2019-05-02T18:06:32.705Z,69.20
2019-05-02T18:08:55.306Z,71.00
2019-05-02T18:11:23.785Z,72.40
2019-05-02T18:13:54.229Z,75.00
2019-05-02T18:16:23.703Z,75.90
2019-05-02T18:18:53.146Z,76.80
2019-05-02T18:21:25.461Z,75.40
2019-05-02T18:23:57.079Z,75.00
2019-05-02T18:26:24.842Z,76.30
2019-05-02T18:28:57.221Z,76.80
2019-05-02T18:31:26.153Z,79.50
2019-05-02T18:33:55.600Z,80.10
2019-05-02T18:36:26.881Z,79.00
2019-05-02T18:39:00.630Z,78.90
2019-05-02T18:41:28.693Z,79.80
2019-05-02T18:43:58.179Z,80.40
2019-05-02T18:46:27.730Z,79.90
2019-05-02T18:48:57.256Z,78.90
2019-05-02T18:51:27.023Z,78.30
2019-05-02T18:53:58.154Z,78.70
2019-05-02T18:56:28.065Z,75.40
2019-05-02T18:58:57.712Z,76.60
2019-05-02T19:01:27.223Z,79.30
2019-05-02T19:03:56.740Z,80.60
2019-05-02T19:06:38.749Z,80.70
2019-05-02T19:09:12.720Z,78.90
2019-05-02T19:11:42.485Z,78.80
2019-05-02T19:14:16.591Z,81.80
2019-05-02T19:16:43.041Z,80.40
2019-05-02T19:19:12.625Z,80.10
2019-05-02T19:21:43.572Z,80.30
2019-05-02T19:24:13.217Z,80.90
2019-05-02T19:26:49.151Z,81.40
2019-05-02T19:29:25.414Z,82.50
2019-05-02T19:31:54.926Z,85.30
2019-05-02T19:34:26.889Z,88.80
2019-05-02T19:36:57.929Z,90.50
2019-05-02T19:39:28.419Z,90.80
2019-05-02T19:41:57.915Z,90.50
2019-05-02T19:44:29.632Z,90.40
2019-05-02T19:46:58.705Z,90.00
2019-05-02T19:49:28.553Z,88.60
2019-05-02T19:51:58.339Z,80.10
2019-05-02T19:54:33.534Z,83.00
2019-05-02T19:57:01.228Z,81.40
2019-05-02T19:59:32.119Z,82.00
2019-05-02T20:02:04.899Z,83.10
2019-05-02T20:04:32.924Z,81.60
2019-05-02T20:07:02.553Z,80.80
2019-05-02T20:09:32.250Z,80.10
2019-05-02T20:12:05.999Z,79.00
2019-05-02T20:14:32.798Z,79.00
2019-05-02T20:17:03.191Z,80.00
2019-05-02T20:19:34.863Z,81.80
2019-05-02T20:22:06.696Z,81.50
2019-05-02T20:24:44.092Z,82.80
2019-05-02T20:27:13.842Z,84.30
2019-05-02T20:29:43.424Z,85.30
2019-05-02T20:32:13.301Z,86.40
2019-05-02T20:34:42.740Z,86.20
2019-05-02T20:37:24.726Z,85.90
2019-05-02T20:39:54.182Z,82.50
2019-05-02T20:42:23.648Z,81.50
2019-05-02T20:44:54.166Z,81.00
2019-05-02T20:47:25.155Z,80.60
2019-05-02T20:49:54.751Z,85.70
2019-05-02T20:52:25.326Z,86.70
2019-05-02T20:54:56.455Z,86.80
2019-05-02T20:57:26.220Z,88.00
2019-05-02T20:59:56.971Z,87.30
2019-05-02T21:02:27.428Z,87.00
2019-05-02T21:04:56.958Z,88.80
2019-05-02T21:07:37.126Z,85.70
2019-05-02T21:10:12.956Z,85.50
2019-05-02T21:12:42.715Z,84.90
2019-05-02T21:15:12.572Z,84.20
2019-05-02T21:17:42.305Z,83.40
2019-05-02T21:20:12.560Z,82.10
2019-05-02T21:22:42.278Z,81.70
2019-05-02T21:25:13.135Z,85.20
2019-05-02T21:27:42.797Z,85.00
2019-05-02T21:30:15.659Z,87.10
2019-05-02T21:32:45.400Z,88.20
2019-05-02T21:35:15.225Z,89.50
2019-05-02T21:37:44.661Z,91.20
2019-05-02T21:40:14.681Z,92.30
2019-05-02T21:42:44.157Z,92.60
2019-05-02T21:45:13.964Z,92.70
2019-05-02T21:47:43.420Z,91.40
2019-05-02T21:50:17.766Z,91.60
2019-05-02T21:52:48.861Z,90.60
2019-05-02T21:55:32.374Z,90.00
2019-05-02T21:58:02.706Z,91.00
2019-05-02T22:00:38.201Z,91.30
2019-05-02T22:03:08.657Z,92.20
2019-05-02T22:05:39.083Z,92.40
2019-05-02T22:08:08.677Z,91.20
2019-05-02T22:10:38.183Z,91.90
2019-05-02T22:13:07.658Z,92.10
2019-05-02T22:15:37.121Z,93.30
2019-05-02T22:18:06.912Z,94.30
2019-05-02T22:20:36.714Z,94.70
2019-05-02T22:23:06.173Z,94.00
2019-05-02T22:25:35.963Z,93.90
2019-05-02T22:28:05.854Z,93.60
2019-05-02T22:30:35.316Z,93.50
2019-05-02T22:33:04.804Z,94.00
2019-05-02T22:35:34.606Z,95.00
2019-05-02T22:38:08.834Z,95.50
2019-05-02T22:40:38.302Z,95.60
2019-05-02T22:43:07.773Z,95.50
2019-05-02T22:45:37.218Z,94.20
2019-05-02T22:48:06.662Z,93.70
2019-05-02T22:50:36.149Z,93.30
2019-05-02T22:53:05.873Z,92.70
2019-05-02T22:55:36.210Z,93.10
2019-05-02T22:58:05.669Z,92.60
2019-05-02T23:00:35.148Z,92.70
2019-05-02T23:03:04.962Z,92.90
2019-05-02T23:05:34.479Z,92.80
2019-05-02T23:08:04.072Z,92.60
2019-05-02T23:10:33.885Z,91.50
2019-05-02T23:13:03.697Z,91.70
2019-05-02T23:15:33.132Z,91.10
2019-05-02T23:18:02.931Z,91.10
2019-05-02T23:20:32.871Z,90.50
2019-05-02T23:23:02.441Z,90.20
2019-05-02T23:25:51.899Z,90.10
2019-05-02T23:28:26.034Z,90.20
2019-05-02T23:30:55.612Z,90.60
2019-05-02T23:33:27.281Z,90.70
2019-05-02T23:35:56.749Z,90.80
2019-05-02T23:38:26.208Z,90.90
2019-05-02T23:40:55.669Z,90.60
2019-05-02T23:43:25.136Z,90.70
2019-05-02T23:45:54.597Z,91.00
2019-05-02T23:48:24.109Z,91.30
2019-05-02T23:50:53.917Z,91.90
2019-05-02T23:53:24.968Z,92.30
2019-05-02T23:55:55.313Z,92.90
2019-05-02T23:58:27.245Z,93.50
